Latest Weather Observations for Kalumburu

IDD60801

Issued at 11:05 am CST Thursday 23 October 2014 (issued every 30 minutes, with the page automatically refreshed every 10 minutes)

About weather observations | Map of weather stations | Latest weather observations for NT | Other Formats
Station Details ID: 001019 Name: KALUMBURU Lat: -14.30 Lon: 126.65 Height: 23.0 m
Data from the previous 72 hours. | See also: Recent months at Kalumburu
Date/Time
CST
Temp
°C
App
Temp
°C
Dew
Point
Rel
Hum
%
Delta-T
°C
Wind Press
QNH
hPa
Press
MSL
hPa
Rain
since 9 am
mm
Dir
 
Spd
km/h
Gust
km/h
Spd
kts
Gust
kts
23/11:00am 32.4 32.7 17.1 40 9.7 N 11 20 6 11 1013.9 1013.7 0.0
23/10:30am 32.6 33.9 20.2 48 8.2 NW 13 20 7 11 1014.0 1013.8 0.0
23/10:00am 31.6 33.6 19.9 50 7.7 NNW 9 17 5 9 1014.3 1014.1 0.0
23/09:30am 31.0 34.1 21.5 57 6.4 W 7 13 4 7 1014.3 1014.1 0.0
23/09:00am 29.8 33.1 21.5 61 5.6 NW 6 11 3 6 1014.4 1014.2 0.0
23/08:30am 29.1 33.3 21.8 64 4.9 SSW 2 9 1 5 1013.9 1013.7 0.0
23/08:00am 28.0 32.6 22.5 72 3.7 SSE 2 7 1 4 1013.6 1013.4 0.0
23/07:30am 26.0 31.1 22.7 82 2.2 CALM 0 0 0 0 1013.4 1013.2 0.0
23/07:00am 23.8 28.3 21.5 87 1.5 CALM 0 0 0 0 1013.0 1012.8 0.0
23/06:30am 23.6 28.0 21.3 87 1.5 CALM 0 0 0 0 1012.8 1012.6 0.0
23/06:00am 22.9 26.9 20.6 87 1.5 CALM 0 0 0 0 1012.5 1012.3 0.0
23/05:30am 23.1 27.3 21.0 88 1.4 CALM 0 0 0 0 1011.9 1011.7 0.0
23/05:00am 22.9 26.9 20.6 87 1.5 CALM 0 0 0 0 1011.5 1011.3 0.0
23/04:30am 23.3 27.1 21.0 87 1.5 E 2 6 1 3 1011.4 1011.2 0.0
23/04:00am 23.3 27.5 21.0 87 1.5 CALM 0 0 0 0 1011.5 1011.3 0.0
23/03:30am 23.4 27.5 20.7 85 1.8 W 0 0 0 0 1011.4 1011.2 0.0
23/03:00am 23.8 28.1 21.1 85 1.8 CALM 0 0 0 0 1011.4 1011.2 0.0
23/02:30am 24.0 28.3 21.1 84 1.9 CALM 0 0 0 0 1011.8 1011.6 0.0
23/02:00am 24.4 28.4 21.3 83 2.0 WNW 2 7 1 4 1012.2 1012.0 0.0
23/01:30am 24.9 29.4 21.6 82 2.2 WNW 0 0 0 0 1012.5 1012.3 0.0
23/01:00am 24.9 29.1 21.0 79 2.6 CALM 0 0 0 0 1012.9 1012.7 0.0
23/12:30am 25.7 30.2 21.6 78 2.7 CALM 0 0 0 0 1013.2 1013.0 0.0
23/12:00am 26.9 30.3 21.6 72 3.5 NW 6 9 3 5 1013.4 1013.2 0.0
 
Date/Time
CST
Temp
°C
App
Temp
°C
Dew
Point
Rel
Hum
%
Delta-T
°C
Wind Press
QNH
hPa
Press
MSL
hPa
Rain
since 9 am
mm
Dir
 
Spd
km/h
Gust
km/h
Spd
kts
Gust
kts
22/11:30pm 27.4 30.9 21.9 72 3.7 WNW 6 11 3 6 1013.7 1013.5 0.0
22/11:00pm 27.5 31.0 22.2 73 3.6 WNW 7 13 4 7 1013.8 1013.6 0.0
22/10:30pm 27.7 31.2 22.2 72 3.7 NW 7 9 4 5 1013.9 1013.7 0.0
22/10:00pm 27.9 31.2 21.9 70 4.0 NW 7 11 4 6 1013.9 1013.7 0.0
22/09:30pm 28.1 30.7 21.9 69 4.2 NNW 11 15 6 8 1013.7 1013.5 0.0
22/09:00pm 28.3 30.6 21.3 65 4.7 NNW 11 17 6 9 1013.6 1013.4 0.0
22/08:30pm 28.6 30.6 21.6 66 4.7 NNW 13 20 7 11 1013.1 1012.9 0.0
22/08:00pm 28.7 31.0 22.0 67 4.5 N 13 20 7 11 1012.6 1012.4 0.0
22/07:30pm 29.1 30.4 20.8 61 5.5 NNW 15 20 8 11 1012.4 1012.2 0.0
22/07:00pm 29.5 30.2 20.4 58 6.0 NNW 17 24 9 13 1011.9 1011.7 0.0
22/06:30pm 30.2 30.1 19.9 54 6.8 NNW 20 30 11 16 1011.3 1011.1 0.0
22/06:00pm 31.0 30.0 18.0 45 8.3 N 20 28 11 15 1011.0 1010.8 0.0
22/05:30pm 32.3 30.9 16.6 39 9.9 N 19 26 10 14 1010.7 1010.5 0.0
22/05:00pm 33.1 32.0 17.3 39 10.1 NNW 19 26 10 14 1010.5 1010.3 0.0
22/04:30pm 33.2 31.8 17.0 38 10.3 NNW 20 28 11 15 1010.5 1010.3 0.0
22/04:00pm 33.7 32.6 17.4 37 10.5 N 19 28 10 15 1010.5 1010.3 0.0
22/03:30pm 33.5 32.5 18.0 39 10.0 N 20 30 11 16 1010.7 1010.5 0.0
22/03:00pm 33.9 33.1 18.0 39 10.3 N 19 28 10 15 1011.0 1010.8 0.0
22/02:30pm 33.8 32.9 18.3 39 10.1 N 20 30 11 16 1011.3 1011.1 0.0
22/02:00pm 34.2 33.3 19.1 41 9.9 N 22 30 12 16 1011.8 1011.6 0.0
22/01:30pm 34.5 33.3 18.5 38 10.5 NNW 22 33 12 18 1012.4 1012.2 0.0
22/01:00pm 34.6 34.3 18.2 37 10.7 NNW 17 30 9 16 1013.0 1012.8 0.0
22/12:30pm 34.6 34.5 17.8 37 10.9 NNW 15 24 8 13 1013.4 1013.2 0.0
22/12:00pm 34.1 33.8 17.3 36 10.8 N 15 24 8 13 1013.9 1013.7 0.0
22/11:30am 33.0 33.4 17.2 39 10.1 NNW 11 17 6 9 1014.2 1014.0 0.0
22/11:00am 33.1 35.3 19.2 43 9.1 N 6 19 3 10 1014.3 1014.1 0.0
22/10:30am 31.8 34.1 19.8 49 7.9 WNW 7 11 4 6 1014.4 1014.2 0.0
22/10:00am 30.9 32.9 19.9 52 7.2 WNW 9 15 5 8 1014.9 1014.7 0.0
22/09:30am 29.9 32.2 20.7 57 6.1 NW 9 11 5 6 1015.0 1014.8 0.0
22/09:00am 28.5 31.2 21.3 65 4.8 NW 9 15 5 8 1015.0 1014.8 0.0
22/08:30am 28.3 31.2 21.8 68 4.4 ENE 9 13 5 7 1015.0 1014.8 0.0
22/08:00am 26.9 31.4 21.6 72 3.5 CALM 0 9 0 5 1014.1 1013.9 0.0
22/07:30am 24.5 29.2 22.0 86 1.7 CALM 0 0 0 0 1013.6 1013.4 0.0
22/07:00am 23.1 27.3 21.0 88 1.4 CALM 0 0 0 0 1013.4 1013.2 0.0
22/06:30am 22.7 26.6 20.4 87 1.5 CALM 0 0 0 0 1013.2 1013.0 0.0
22/06:00am 22.9 27.0 20.8 88 1.4 CALM 0 0 0 0 1012.9 1012.7 0.0
22/05:30am 23.3 27.5 21.0 87 1.5 CALM 0 0 0 0 1012.5 1012.3 0.0
22/05:00am 23.2 27.4 20.9 87 1.5 CALM 0 0 0 0 1012.3 1012.1 0.0
22/04:30am 23.3 27.4 20.8 86 1.6 CALM 0 0 0 0 1012.0 1011.8 0.0
22/04:00am 23.7 27.9 21.0 85 1.8 CALM 0 0 0 0 1012.0 1011.8 0.0
22/03:30am 24.1 28.5 21.4 85 1.8 CALM 0 0 0 0 1012.0 1011.8 0.0
22/03:00am 24.1 28.5 21.4 85 1.8 CALM 0 0 0 0 1012.1 1011.9 0.0
22/02:30am 24.4 28.8 21.3 83 2.0 CALM 0 0 0 0 1012.2 1012.0 0.0
22/02:00am 25.1 29.2 21.6 81 2.3 WNW 2 7 1 4 1012.6 1012.4 0.0
22/01:30am 25.7 30.1 21.4 77 2.9 CALM 0 0 0 0 1013.1 1012.9 0.0
22/01:00am 27.0 30.6 22.0 74 3.4 WNW 6 7 3 4 1013.6 1013.4 0.0
22/12:30am 27.0 30.8 21.7 73 3.5 WNW 4 7 2 4 1013.9 1013.7 0.0
22/12:00am 27.8 30.9 22.1 71 3.8 NW 9 11 5 6 1014.3 1014.1 0.0
 
Date/Time
CST
Temp
°C
App
Temp
°C
Dew
Point
Rel
Hum
%
Delta-T
°C
Wind Press
QNH
hPa
Press
MSL
hPa
Rain
since 9 am
mm
Dir
 
Spd
km/h
Gust
km/h
Spd
kts
Gust
kts
21/11:30pm 27.6 31.1 21.9 71 3.8 NW 6 9 3 5 1014.6 1014.4 0.0
21/11:00pm 27.8 31.3 22.1 71 3.8 NW 7 11 4 6 1014.7 1014.5 0.0
21/10:30pm 28.1 31.2 22.1 70 4.0 NNW 9 11 5 6 1014.6 1014.4 0.0
21/10:00pm 28.3 31.4 22.1 69 4.2 NW 9 15 5 8 1014.5 1014.3 0.0
21/09:30pm 28.4 30.6 21.9 68 4.4 NW 13 17 7 9 1014.5 1014.3 0.0
21/09:00pm 28.6 30.9 22.1 68 4.4 NNW 13 20 7 11 1014.3 1014.1 0.0
21/08:30pm 28.8 31.0 21.8 66 4.7 NNW 13 19 7 10 1013.9 1013.7 0.0
21/08:00pm 29.0 30.0 21.0 62 5.3 N 17 24 9 13 1013.6 1013.4 0.0
21/07:30pm 29.2 30.3 20.4 59 5.8 N 15 26 8 14 1013.3 1013.1 0.0
21/07:00pm 29.4 29.3 20.0 57 6.2 N 20 30 11 16 1012.7 1012.5 0.0
21/06:30pm 29.9 30.1 20.5 57 6.2 N 20 32 11 17 1012.1 1011.9 0.0
21/06:00pm 30.4 30.0 20.9 57 6.3 N 24 33 13 18 1011.9 1011.7 0.0
21/05:30pm 30.8 29.8 20.4 54 6.9 N 26 37 14 20 1011.4 1011.2 0.0
21/05:00pm 31.7 31.0 20.3 50 7.6 N 24 33 13 18 1011.3 1011.1 0.0
21/04:30pm 32.5 32.5 20.1 48 8.2 N 20 28 11 15 1011.3 1011.1 0.0
21/04:00pm 32.7 31.8 19.9 46 8.5 N 24 33 13 18 1011.4 1011.2 0.0
21/03:30pm 33.5 33.6 20.3 46 8.8 NNW 20 30 11 16 1011.8 1011.6 0.0
21/03:00pm 33.0 32.3 20.2 47 8.5 N 24 32 13 17 1011.9 1011.7 0.0
21/02:30pm 33.0 32.4 19.8 45 8.7 N 22 33 12 18 1012.5 1012.3 0.0
21/02:00pm 32.5 32.5 20.1 48 8.2 N 20 33 11 18 1013.0 1012.8 0.0
21/01:30pm 33.3 33.4 20.4 46 8.6 N 20 33 11 18 1013.4 1013.2 0.0
21/01:00pm 33.4 33.5 21.2 48 8.2 N 22 35 12 19 1014.1 1013.9 0.0
21/12:30pm 32.5 32.7 20.1 48 8.2 N 19 32 10 17 1014.5 1014.3 0.0
21/12:00pm 32.7 32.9 20.6 49 8.1 N 20 30 11 16 1015.0 1014.8 0.0
21/11:30am 32.8 33.1 20.3 47 8.3 N 19 28 10 15 1015.4 1015.2 0.0
21/11:00am 32.7 32.9 20.2 47 8.3 N 19 30 10 16 1015.6 1015.4 0.0
21/10:30am 31.4 31.7 19.7 49 7.7 NNW 17 28 9 15 1015.9 1015.7 0.0
21/10:00am 31.3 32.5 19.9 50 7.5 NNW 13 19 7 10 1016.1 1015.9 0.0
21/09:30am 30.7 31.6 20.0 52 7.1 NW 15 22 8 12 1016.0 1015.8 0.0
21/09:00am 30.9 30.7 17.6 45 8.5 N 15 22 8 12 1015.8 1015.6 0.0
21/08:30am 29.1 29.8 18.8 53 6.6 NNE 13 17 7 9 1015.7 1015.5 0.0
21/08:00am 27.8 30.1 20.6 65 4.7 N 9 13 5 7 1015.2 1015.0 0.0
21/07:30am 25.0 28.0 22.7 87 1.5 N 11 17 6 9 1015.1 1014.9 0.0
21/07:00am 22.1 25.8 20.0 88 1.3 CALM 0 0 0 0 1014.0 1013.8 0.0
21/06:30am 22.2 26.1 20.3 89 1.2 CALM 0 0 0 0 1013.7 1013.5 0.0
21/06:00am 21.9 25.4 19.6 87 1.5 CALM 0 0 0 0 1013.2 1013.0 0.0
21/05:30am 22.4 26.2 20.1 87 1.5 CALM 0 0 0 0 1012.8 1012.6 0.0
21/05:00am 22.6 26.5 20.3 87 1.5 CALM 0 0 0 0 1012.7 1012.5 0.0
21/04:30am 23.3 27.5 21.0 87 1.5 CALM 0 0 0 0 1012.3 1012.1 0.0
21/04:00am 23.0 26.9 20.3 85 1.7 CALM 0 0 0 0 1012.2 1012.0 0.0
21/03:30am 23.4 27.6 20.9 86 1.6 CALM 0 0 0 0 1012.3 1012.1 0.0
21/03:00am 23.5 27.4 20.4 83 2.0 CALM 0 0 0 0 1012.2 1012.0 0.0
21/02:30am 23.6 27.5 20.3 82 2.1 CALM 0 0 0 0 1012.3 1012.1 0.0
21/02:00am 24.0 26.6 20.1 79 2.5 S 6 6 3 3 1012.6 1012.4 0.0
21/01:30am 24.8 29.2 21.3 81 2.3 CALM 0 0 0 0 1012.8 1012.6 0.0
21/01:00am 25.1 29.4 21.2 79 2.6 CALM 0 0 0 0 1013.1 1012.9 0.0
21/12:30am 25.7 29.1 21.6 78 2.7 SSW 6 7 3 4 1013.5 1013.3 0.0
21/12:00am 25.8 29.5 21.5 77 2.9 SSW 4 9 2 5 1013.8 1013.6 0.0
 
Date/Time
CST
Temp
°C
App
Temp
°C
Dew
Point
Rel
Hum
%
Delta-T
°C
Wind Press
QNH
hPa
Press
MSL
hPa
Rain
since 9 am
mm
Dir
 
Spd
km/h
Gust
km/h
Spd
kts
Gust
kts
20/11:30pm 25.9 29.6 20.7 73 3.4 WSW 2 6 1 3 1014.0 1013.8 0.0
20/11:00pm 25.9 30.1 20.9 74 3.3 CALM 0 0 0 0 1014.0 1013.8 0.0
20/10:30pm 26.9 30.9 20.5 68 4.2 CALM 0 0 0 0 1014.0 1013.8 0.0
20/10:00pm 27.2 31.1 20.3 66 4.5 CALM 0 4 0 2 1014.0 1013.8 0.0
20/09:30pm 28.5 31.1 20.5 62 5.3 NNW 7 11 4 6 1013.9 1013.7 0.0
20/09:00pm 28.6 30.8 20.3 60 5.5 NW 9 13 5 7 1013.6 1013.4 0.0
20/08:30pm 28.9 30.8 20.6 61 5.5 NW 11 20 6 11 1013.4 1013.2 0.0
20/08:00pm 29.2 30.7 20.6 59 5.7 NNW 13 20 7 11 1013.0 1012.8 0.0
20/07:30pm 29.3 30.3 20.2 58 6.0 NNW 15 24 8 13 1012.7 1012.5 0.0
20/07:00pm 29.5 29.8 20.4 58 6.0 N 19 24 10 13 1012.4 1012.2 0.0
20/06:30pm 30.1 29.9 19.8 54 6.8 N 20 32 11 17 1011.8 1011.6 0.0
20/06:00pm 30.9 29.7 18.3 47 8.1 N 22 30 12 16 1011.4 1011.2 0.0
20/05:30pm 31.2 29.6 19.2 48 7.8 N 26 37 14 20 1011.1 1010.9 0.0
20/05:00pm 32.4 30.4 18.2 42 9.2 N 26 35 14 19 1010.8 1010.6 0.0
20/04:30pm 32.4 29.4 16.7 39 9.9 N 28 41 15 22 1010.7 1010.5 0.0
20/04:00pm 34.1 32.3 17.8 38 10.5 N 24 39 13 21 1010.7 1010.5 0.0
20/03:30pm 34.2 32.4 18.7 40 10.2 N 26 37 14 20 1010.5 1010.3 0.0
20/03:00pm 34.8 33.6 18.4 38 10.7 N 22 32 12 17 1010.6 1010.4 0.0
20/02:30pm 34.9 34.1 18.5 38 10.7 NW 20 30 11 16 1011.1 1010.9 0.0
20/02:00pm 34.0 32.9 17.7 38 10.5 NNW 20 28 11 15 1011.9 1011.7 0.0
20/01:30pm 34.5 34.3 18.5 38 10.5 NNW 17 28 9 15 1012.4 1012.2 0.0
20/01:00pm 34.3 34.2 18.8 40 10.2 N 17 26 9 14 1013.1 1012.9 0.0

Other Formats:

Comma delimited format used in spreadsheet applications
http://www.bom.gov.au/fwo/IDD60801/IDD60801.94100.axf

JavaScript Object Notation format (JSON) in row-major order
http://www.bom.gov.au/fwo/IDD60801/IDD60801.94100.json